createdAt,value
2017-12-21T05:59:16.298Z,9.73
2017-12-21T06:01:43.900Z,8.75
2017-12-21T06:04:12.165Z,9.65
2017-12-21T06:06:40.482Z,9.25
2017-12-21T06:09:07.988Z,7.75
2017-12-21T06:11:35.498Z,7.65
2017-12-21T06:14:02.992Z,7.40
2017-12-21T06:16:30.496Z,7.75
2017-12-21T06:18:58.792Z,6.40
2017-12-21T06:21:26.291Z,6.07
2017-12-21T06:23:53.792Z,6.60
2017-12-21T06:26:22.046Z,9.00
2017-12-21T06:28:49.591Z,6.90
2017-12-21T06:31:17.095Z,7.95
2017-12-21T06:33:44.612Z,7.95
2017-12-21T06:36:12.128Z,8.25
2017-12-21T06:38:39.615Z,8.35
2017-12-21T06:41:07.120Z,7.40
2017-12-21T06:43:35.392Z,8.02
2017-12-21T06:46:03.691Z,7.80
2017-12-21T06:48:31.204Z,6.83
2017-12-21T06:50:58.707Z,9.23
2017-12-21T06:53:26.307Z,6.37
2017-12-21T06:55:53.878Z,6.93
2017-12-21T06:58:21.376Z,7.70
2017-12-21T07:00:49.646Z,9.23
2017-12-21T07:03:17.926Z,7.70
2017-12-21T07:05:46.204Z,10.07
2017-12-21T07:08:15.502Z,7.85
2017-12-21T07:10:43.779Z,8.70
2017-12-21T07:13:12.161Z,7.32
2017-12-21T07:15:39.689Z,10.68
2017-12-21T07:18:07.207Z,8.02
2017-12-21T07:20:34.716Z,7.78
2017-12-21T07:23:02.202Z,7.50
2017-12-21T07:25:29.711Z,11.93
2017-12-21T07:27:57.421Z,9.63
2017-12-21T07:30:24.941Z,11.10
2017-12-21T07:32:52.460Z,12.43
2017-12-21T07:35:19.989Z,10.50
2017-12-21T07:37:48.279Z,10.68
2017-12-21T07:40:15.819Z,10.35
2017-12-21T07:42:43.370Z,14.32
2017-12-21T07:45:10.888Z,11.07
2017-12-21T07:47:38.419Z,12.10
2017-12-21T07:50:05.981Z,12.00
2017-12-21T07:52:33.659Z,14.90
2017-12-21T07:55:01.924Z,18.30
2017-12-21T07:57:29.424Z,15.10
2017-12-21T07:59:56.942Z,18.67
2017-12-21T08:02:24.455Z,18.10
2017-12-21T08:04:52.899Z,18.80
2017-12-21T08:07:20.420Z,13.30
2017-12-21T08:09:48.023Z,10.98
2017-12-21T08:12:15.514Z,11.57
2017-12-21T08:14:43.799Z,14.30
2017-12-21T08:17:11.329Z,13.02
2017-12-21T08:19:38.853Z,16.98
2017-12-21T08:22:06.369Z,24.87
2017-12-21T08:24:33.863Z,23.12
2017-12-21T08:27:01.425Z,27.90
2017-12-21T08:29:28.964Z,23.33
2017-12-21T08:31:56.502Z,26.62
2017-12-21T08:34:23.991Z,27.50
2017-12-21T08:36:51.497Z,22.92
2017-12-21T08:39:19.012Z,29.80
2017-12-21T08:41:47.284Z,27.58
2017-12-21T08:44:15.565Z,28.33
2017-12-21T08:46:44.542Z,25.00
2017-12-21T08:49:12.068Z,24.15
2017-12-21T08:51:39.580Z,24.30
2017-12-21T08:54:07.849Z,19.87
2017-12-21T08:56:35.358Z,19.27
2017-12-21T08:59:02.923Z,20.65
2017-12-21T09:01:30.462Z,13.70
2017-12-21T09:03:57.973Z,13.93
2017-12-21T09:06:25.487Z,12.20
2017-12-21T09:08:54.162Z,10.57
2017-12-21T09:11:21.658Z,9.45
2017-12-21T09:13:49.157Z,9.45
2017-12-21T09:16:17.430Z,8.37
2017-12-21T09:18:44.960Z,8.80
2017-12-21T09:21:12.479Z,8.60
2017-12-21T09:23:39.998Z,8.50
2017-12-21T09:26:07.509Z,8.20
2017-12-21T09:28:35.019Z,8.40
2017-12-21T09:31:02.535Z,7.82
2017-12-21T09:33:30.034Z,8.07
2017-12-21T09:35:57.572Z,8.15
2017-12-21T09:38:25.098Z,7.97
2017-12-21T09:40:52.612Z,9.07
2017-12-21T09:43:20.097Z,8.90
2017-12-21T09:45:48.367Z,8.00
2017-12-21T09:48:16.667Z,9.18
2017-12-21T09:50:44.156Z,9.27
2017-12-21T09:53:11.667Z,8.98
2017-12-21T09:55:39.179Z,8.30
2017-12-21T09:58:06.677Z,8.15
2017-12-21T10:00:35.307Z,8.77
2017-12-21T10:03:02.812Z,7.45
2017-12-21T10:05:31.079Z,8.90
2017-12-21T10:07:58.568Z,8.48
2017-12-21T10:10:26.092Z,8.60
2017-12-21T10:12:53.582Z,8.60
2017-12-21T10:15:21.083Z,7.97
2017-12-21T10:17:48.725Z,9.43
2017-12-21T10:20:16.247Z,9.52
2017-12-21T10:22:44.542Z,8.82
2017-12-21T10:25:12.049Z,9.57
2017-12-21T10:27:39.555Z,9.50
2017-12-21T10:30:07.054Z,9.20
2017-12-21T10:32:34.567Z,8.88
2017-12-21T10:35:02.847Z,8.45
2017-12-21T10:37:31.141Z,9.02
2017-12-21T10:39:58.647Z,9.55
2017-12-21T10:42:26.155Z,9.52
2017-12-21T10:44:53.651Z,9.48
2017-12-21T10:47:21.196Z,9.82
2017-12-21T10:49:48.715Z,9.65
2017-12-21T10:52:16.279Z,9.10
2017-12-21T10:54:43.795Z,9.80
2017-12-21T10:57:11.279Z,9.52
2017-12-21T10:59:38.790Z,9.40
2017-12-21T11:02:06.337Z,9.48
2017-12-21T11:04:33.851Z,10.55
2017-12-21T11:07:01.378Z,10.07
2017-12-21T11:09:28.890Z,10.45
2017-12-21T11:11:57.219Z,10.20
2017-12-21T11:14:24.741Z,9.50
2017-12-21T11:16:53.054Z,9.88
2017-12-21T11:19:20.572Z,9.15
2017-12-21T11:21:48.847Z,9.45
2017-12-21T11:24:17.197Z,9.80
2017-12-21T11:26:44.736Z,9.20
2017-12-21T11:29:12.252Z,9.85
2017-12-21T11:31:40.529Z,10.13
2017-12-21T11:34:08.050Z,9.00
2017-12-21T11:36:35.552Z,10.20
2017-12-21T11:39:03.075Z,10.05
2017-12-21T11:41:30.571Z,9.57
2017-12-21T11:43:58.080Z,9.27
2017-12-21T11:46:25.593Z,10.00
2017-12-21T11:48:53.112Z,10.75
2017-12-21T11:51:20.626Z,11.55
2017-12-21T11:53:48.267Z,11.25
2017-12-21T11:56:15.801Z,11.18
2017-12-21T11:58:43.320Z,10.95
2017-12-21T12:01:10.864Z,10.70
2017-12-21T12:03:38.392Z,11.77
2017-12-21T12:06:05.908Z,10.48
2017-12-21T12:08:33.444Z,11.27
2017-12-21T12:11:00.948Z,11.00
2017-12-21T12:13:28.464Z,11.55
2017-12-21T12:15:56.000Z,11.90
2017-12-21T12:18:24.293Z,13.35
2017-12-21T12:20:51.791Z,10.68
2017-12-21T12:23:19.303Z,10.77
2017-12-21T12:25:46.846Z,11.93
2017-12-21T12:28:15.123Z,11.27
2017-12-21T12:30:43.405Z,11.60
2017-12-21T12:33:11.685Z,11.98
2017-12-21T12:35:39.993Z,11.60
2017-12-21T12:38:07.515Z,11.87
2017-12-21T12:40:35.061Z,12.90
2017-12-21T12:43:02.571Z,11.23
2017-12-21T12:45:30.118Z,11.50
2017-12-21T12:47:57.624Z,11.15
2017-12-21T12:50:25.155Z,13.60
2017-12-21T12:52:52.755Z,11.00
2017-12-21T12:55:20.362Z,11.05
2017-12-21T12:57:47.918Z,9.85
2017-12-21T13:00:15.428Z,11.93
2017-12-21T13:02:42.945Z,12.73
2017-12-21T13:05:10.542Z,12.80
2017-12-21T13:07:38.082Z,10.00
2017-12-21T13:10:05.612Z,9.10
2017-12-21T13:12:33.893Z,8.07
2017-12-21T13:15:01.395Z,8.90
2017-12-21T13:17:28.901Z,9.63
2017-12-21T13:19:56.419Z,10.73
2017-12-21T13:22:23.924Z,9.73
2017-12-21T13:24:51.435Z,11.32
2017-12-21T13:27:18.944Z,8.95
2017-12-21T13:29:46.460Z,10.95
2017-12-21T13:32:14.003Z,11.10
2017-12-21T13:34:41.491Z,10.65
2017-12-21T13:37:09.042Z,8.35
2017-12-21T13:39:36.538Z,9.80
2017-12-21T13:42:04.076Z,11.80
2017-12-21T13:44:32.343Z,9.30
2017-12-21T13:46:59.860Z,10.57
2017-12-21T13:49:27.399Z,10.90
2017-12-21T13:51:54.896Z,9.52
2017-12-21T13:54:22.406Z,12.73
2017-12-21T13:56:49.956Z,9.68
2017-12-21T13:59:18.221Z,10.27
2017-12-21T14:01:46.512Z,11.40
2017-12-21T14:04:14.807Z,9.95
2017-12-21T14:06:42.307Z,12.30
2017-12-21T14:09:09.807Z,9.30
2017-12-21T14:11:37.351Z,10.77
2017-12-21T14:14:05.638Z,11.18
2017-12-21T14:16:33.903Z,12.23
2017-12-21T14:19:02.235Z,12.75
2017-12-21T14:21:29.777Z,13.07
2017-12-21T14:23:57.319Z,13.10
2017-12-21T14:26:25.589Z,13.43
2017-12-21T14:28:53.867Z,12.60
2017-12-21T14:31:22.158Z,11.38
2017-12-21T14:33:49.702Z,11.23
2017-12-21T14:36:17.259Z,10.60
2017-12-21T14:38:45.531Z,10.40
2017-12-21T14:41:13.810Z,10.40
2017-12-21T14:43:42.102Z,9.93
2017-12-21T14:46:10.393Z,9.82
2017-12-21T14:48:37.949Z,8.80
2017-12-21T14:51:05.444Z,11.55
2017-12-21T14:53:32.956Z,9.40
2017-12-21T14:56:01.216Z,15.07
2017-12-21T14:58:29.670Z,11.35
2017-12-21T15:00:57.207Z,11.80
2017-12-21T15:03:24.708Z,12.85
2017-12-21T15:05:52.230Z,14.48
2017-12-21T15:08:19.735Z,9.23
2017-12-21T15:10:48.008Z,12.68
2017-12-21T15:13:16.277Z,11.45
2017-12-21T15:15:43.850Z,11.07
2017-12-21T15:18:12.159Z,11.60
2017-12-21T15:20:39.658Z,12.35
2017-12-21T15:23:07.153Z,12.73
2017-12-21T15:25:35.455Z,9.75
2017-12-21T15:28:02.961Z,12.00
2017-12-21T15:30:30.473Z,9.48
2017-12-21T15:32:57.977Z,14.15
2017-12-21T15:35:25.506Z,10.35
2017-12-21T15:37:53.009Z,9.63
2017-12-21T15:40:20.559Z,10.75
2017-12-21T15:42:48.069Z,8.95
2017-12-21T15:45:15.578Z,8.80
2017-12-21T15:47:43.080Z,12.95
2017-12-21T15:50:10.568Z,9.05
2017-12-21T15:52:38.069Z,9.90
2017-12-21T15:55:05.568Z,9.43
2017-12-21T15:57:33.107Z,10.43
2017-12-21T16:00:00.612Z,11.00
2017-12-21T16:02:28.156Z,12.30
2017-12-21T16:04:55.687Z,9.85
2017-12-21T16:07:23.190Z,10.10
2017-12-21T16:09:50.720Z,11.05
2017-12-21T16:12:18.239Z,14.63
2017-12-21T16:14:45.778Z,11.30
2017-12-21T16:17:13.330Z,11.18
2017-12-21T16:19:40.897Z,14.57
2017-12-21T16:22:08.400Z,8.13
2017-12-21T16:24:36.724Z,9.40
2017-12-21T16:27:04.256Z,11.50
2017-12-21T16:29:31.876Z,9.88
2017-12-21T16:31:59.404Z,13.62
2017-12-21T16:34:26.899Z,14.60
2017-12-21T16:36:55.182Z,10.98
2017-12-21T16:39:22.718Z,12.25
2017-12-21T16:41:50.228Z,11.40
2017-12-21T16:44:17.761Z,10.50
2017-12-21T16:46:46.032Z,8.35
2017-12-21T16:49:14.306Z,10.02
2017-12-21T16:51:41.819Z,11.40
2017-12-21T16:54:09.342Z,10.85
2017-12-21T16:56:36.862Z,11.45
2017-12-21T16:59:04.423Z,10.27
2017-12-21T17:01:31.936Z,12.37
2017-12-21T17:03:59.477Z,9.98
2017-12-21T17:06:27.747Z,9.85
2017-12-21T17:08:56.006Z,8.75
2017-12-21T17:11:23.515Z,9.48
2017-12-21T17:13:51.032Z,9.63
2017-12-21T17:16:18.540Z,12.10
2017-12-21T17:18:46.058Z,10.88
2017-12-21T17:21:14.347Z,9.83
2017-12-21T17:23:41.857Z,11.68
2017-12-21T17:26:09.384Z,9.98
2017-12-21T17:28:36.880Z,10.48
2017-12-21T17:31:04.421Z,9.25
2017-12-21T17:33:31.936Z,10.30
2017-12-21T17:35:59.497Z,9.13
2017-12-21T17:38:27.812Z,11.80
2017-12-21T17:40:55.381Z,11.98
2017-12-21T17:43:22.959Z,10.60
2017-12-21T17:45:50.492Z,8.90
2017-12-21T17:48:17.994Z,9.70
2017-12-21T17:50:45.508Z,10.75
2017-12-21T17:53:13.019Z,9.95
2017-12-21T17:55:40.632Z,11.18
2017-12-21T17:58:08.180Z,12.73
2017-12-21T18:00:35.784Z,10.73
2017-12-21T18:03:03.318Z,10.18
2017-12-21T18:05:30.891Z,10.75
2017-12-21T18:07:58.425Z,10.75
2017-12-21T18:10:26.155Z,11.52
2017-12-21T18:12:54.485Z,13.52
2017-12-21T18:15:21.994Z,11.07
2017-12-21T18:17:49.488Z,10.70
2017-12-21T18:20:17.004Z,12.93
2017-12-21T18:22:45.287Z,14.48
2017-12-21T18:25:13.580Z,13.98
2017-12-21T18:27:41.860Z,15.23
2017-12-21T18:30:09.416Z,14.68
2017-12-21T18:32:36.926Z,15.05
2017-12-21T18:35:04.465Z,14.00
2017-12-21T18:37:31.990Z,16.33
2017-12-21T18:39:59.509Z,16.05
2017-12-21T18:42:27.044Z,13.98
2017-12-21T18:44:54.559Z,15.55
2017-12-21T18:47:22.061Z,14.95
2017-12-21T18:49:49.577Z,18.37
2017-12-21T18:52:17.860Z,16.73
2017-12-21T18:54:46.283Z,15.05
2017-12-21T18:57:13.795Z,17.00
2017-12-21T18:59:42.116Z,17.45
2017-12-21T19:02:09.634Z,18.52
2017-12-21T19:04:37.165Z,19.15
2017-12-21T19:07:04.703Z,13.83
2017-12-21T19:09:32.274Z,15.95
2017-12-21T19:11:59.805Z,12.10
2017-12-21T19:14:27.306Z,9.80
2017-12-21T19:16:54.875Z,14.40
2017-12-21T19:19:22.464Z,13.98
2017-12-21T19:21:49.986Z,15.83
2017-12-21T19:24:17.505Z,12.82
2017-12-21T19:26:45.049Z,12.93
2017-12-21T19:29:12.574Z,11.83
2017-12-21T19:31:40.112Z,14.55
2017-12-21T19:34:07.665Z,13.62
2017-12-21T19:36:35.190Z,13.97
2017-12-21T19:39:03.268Z,14.68
2017-12-21T19:41:30.795Z,13.18
2017-12-21T19:43:58.299Z,17.15
2017-12-21T19:46:25.850Z,14.02
2017-12-21T19:48:53.384Z,12.75
2017-12-21T19:51:20.890Z,12.10
2017-12-21T19:53:48.404Z,14.25
2017-12-21T19:56:16.678Z,8.93
2017-12-21T19:58:44.991Z,11.10
2017-12-21T20:01:12.494Z,10.55
2017-12-21T20:03:40.023Z,13.02
2017-12-21T20:06:07.559Z,12.10
2017-12-21T20:08:36.081Z,13.95
2017-12-21T20:11:03.620Z,10.80
2017-12-21T20:13:31.148Z,12.05
2017-12-21T20:15:58.664Z,11.50
2017-12-21T20:18:26.168Z,11.90
2017-12-21T20:20:53.722Z,12.07
2017-12-21T20:23:22.004Z,15.13
2017-12-21T20:25:49.517Z,13.23
2017-12-21T20:28:17.065Z,16.30
2017-12-21T20:30:44.608Z,13.98
2017-12-21T20:33:12.140Z,13.27
2017-12-21T20:35:39.703Z,13.70
2017-12-21T20:38:07.311Z,19.40
2017-12-21T20:40:34.891Z,14.70
2017-12-21T20:43:02.435Z,15.77
2017-12-21T20:45:30.714Z,18.73
2017-12-21T20:47:58.264Z,16.95
2017-12-21T20:50:25.791Z,19.70
2017-12-21T20:52:53.325Z,17.58
2017-12-21T20:55:21.743Z,17.55
2017-12-21T20:57:49.258Z,17.85
2017-12-21T21:00:17.852Z,24.55
2017-12-21T21:02:46.168Z,22.37
2017-12-21T21:05:13.699Z,21.73
2017-12-21T21:07:41.337Z,25.90
2017-12-21T21:10:09.733Z,27.27
2017-12-21T21:12:37.271Z,21.02
2017-12-21T21:15:05.671Z,20.98
2017-12-21T21:17:33.210Z,19.57
2017-12-21T21:20:00.715Z,28.52
2017-12-21T21:22:28.249Z,23.48
2017-12-21T21:24:55.880Z,28.48
2017-12-21T21:27:23.379Z,28.00
2017-12-21T21:29:50.887Z,24.70
2017-12-21T21:32:18.419Z,22.95
2017-12-21T21:34:45.920Z,25.70
2017-12-21T21:37:13.501Z,24.05
2017-12-21T21:39:41.794Z,22.65
2017-12-21T21:42:10.056Z,24.37
2017-12-21T21:44:38.345Z,25.62
2017-12-21T21:47:06.707Z,24.20
2017-12-21T21:49:34.245Z,27.30
2017-12-21T21:52:01.773Z,26.10
2017-12-21T21:54:29.271Z,28.10
2017-12-21T21:56:56.801Z,28.50
2017-12-21T21:59:24.320Z,28.77
2017-12-21T22:01:52.594Z,29.63
2017-12-21T22:04:21.891Z,30.48
2017-12-21T22:06:49.428Z,31.02
2017-12-21T22:09:16.928Z,31.17
2017-12-21T22:11:44.462Z,35.75
2017-12-21T22:14:12.753Z,29.65
2017-12-21T22:16:41.613Z,30.42
2017-12-21T22:19:09.123Z,31.85
2017-12-21T22:21:36.661Z,24.80
2017-12-21T22:24:04.181Z,32.72
2017-12-21T22:26:32.455Z,31.77
2017-12-21T22:29:00.737Z,31.00
2017-12-21T22:31:28.243Z,28.50
2017-12-21T22:33:55.739Z,34.05
2017-12-21T22:36:23.305Z,33.58
2017-12-21T22:38:50.846Z,24.40
2017-12-21T22:41:18.355Z,31.75
2017-12-21T22:43:45.873Z,28.83
2017-12-21T22:46:13.414Z,30.90
2017-12-21T22:48:40.928Z,29.02
2017-12-21T22:51:08.452Z,29.20
2017-12-21T22:53:36.641Z,28.30
2017-12-21T22:56:04.197Z,30.60
2017-12-21T22:58:31.697Z,27.55
2017-12-21T23:01:00.003Z,27.37
2017-12-21T23:03:27.528Z,28.73
2017-12-21T23:05:55.055Z,28.35
2017-12-21T23:08:22.574Z,29.27
2017-12-21T23:10:50.107Z,30.05
2017-12-21T23:13:17.626Z,28.80
2017-12-21T23:15:45.201Z,23.33
2017-12-21T23:18:12.693Z,22.63
2017-12-21T23:20:40.214Z,25.65
2017-12-21T23:23:07.731Z,22.92
2017-12-21T23:25:35.267Z,21.95
2017-12-21T23:28:02.766Z,22.42
2017-12-21T23:30:30.305Z,24.45
2017-12-21T23:32:57.809Z,22.40
2017-12-21T23:35:25.311Z,20.80
2017-12-21T23:37:52.816Z,24.08
2017-12-21T23:40:20.335Z,24.60
2017-12-21T23:42:48.623Z,19.62
2017-12-21T23:45:16.163Z,23.80
2017-12-21T23:47:43.656Z,29.50
2017-12-21T23:50:11.176Z,24.40
2017-12-21T23:52:39.455Z,23.48
2017-12-21T23:55:07.772Z,21.40
2017-12-21T23:57:35.277Z,20.15
